Canefield Airport

Cloudy with light showers
25oC (77oF)

Cloudy with light showers


Winds: South south easterly @ 04kts /07km/h

Humidity: 92%

Barometric Pressure: 1015 mb

Accumulated Rainfall for June: 87.6 mm

Updated: 6:00 local time (10:00 UTC)

Canefield Airport

Overcast and breezy with light showers
27oC (81oF)

Overcast and breezy with light showers


Winds: Easterly @ 14kts / 26km/h

Humidity: 85%

Barometric Pressure: 1017 mb

Accumulated Rainfall for June: 191.1 mm

Updated: 6:00 local time (10:00 UTC)

Satellite Imagery

Satellite Imagery
Click image for larger view. (Source: National Hurricane Center).

Aviation Routine Report (METAR)

Douglas-Charles: METAR TDPD 251000Z 09014KT 9000 -SHRA BKN016 BKN034 27/25 Q1017=
Canefield: METAR TDCF 251000Z 15004KT 6000 -SHRA BKN016 25/23 Q1015=